Elyria, Ohio
Current Conditions -  °F | °C
As of 3:53 AM on Friday 31 Oct 2014 (Local Time) from KLPR Reporting Station
Overcast Overcast  
Wind Chill: 39°   Ceiling: 5000
Heat Index: 43°   Visibility: 10mi
Dew Point: 37°   Wind: 6mph
Humidity: 80%   Direction: 210°SSW
Pressure: 29.99"   Gusts: NA
Location:  41.37°N, 82.1°W
Report Text: KLPR 310753Z AUTO 21005KT 10SM OVC050 06/03 A2999 RMK AO2 SLP158 T00610028 TSNO
Loading
Personal Weather Stations






























Interactive Weather Map
Tropical Storm Tracking
New forecast layout! Learn more

10-Day Weather Forecast

Advertisements
Track Severe Weather on mobile